Time;durP1;ratioP1;P1;durP2;ratioP2;P2;SDS_P1;SDS_P2;PMS_P1;PMS_P2;Temp;Humidity;BMP_temperature;BMP_pressure;BME280_temperature;BME280_humidity;BME280_pressure;Samples;Min_cycle;Max_cycle;Signal;HPM_P1;HPM_P2
2021/05/21 00:05:27;;;;;;;1.95;1.10;;;16.20;90.70;;;;;;11987198;28;20057;-74
2021/05/21 00:11:15;;;;;;;1.88;1.00;;;16.00;90.60;;;;;;11976342;28;20060;-74
2021/05/21 00:17:01;;;;;;;7.32;1.38;;;16.10;90.60;;;;;;11995157;28;20533;-74
2021/05/21 00:22:48;;;;;;;4.35;1.60;;;15.80;91.30;;;;;;11970190;28;20053;-74
2021/05/21 00:28:35;;;;;;;11.02;1.52;;;15.70;91.50;;;;;;11991899;28;20064;-73
2021/05/21 00:34:21;;;;;;;6.18;1.38;;;15.70;91.80;;;;;;11973386;28;20059;-73
2021/05/21 00:40:10;;;;;;;4.93;1.42;;;15.70;92.00;;;;;;11995658;28;20048;-73
2021/05/21 00:45:57;;;;;;;3.05;1.23;;;15.50;92.60;;;;;;11992797;28;20605;-77
2021/05/21 00:51:44;;;;;;;4.65;1.35;;;15.50;92.80;;;;;;11996251;28;20048;-76
2021/05/21 00:57:31;;;;;;;5.18;1.50;;;15.60;92.70;;;;;;11994437;28;20053;-76
2021/05/21 01:03:18;;;;;;;9.10;2.00;;;15.40;92.80;;;;;;11988893;28;21139;-77
2021/05/21 01:09:04;;;;;;;5.70;1.67;;;15.50;93.20;;;;;;11990875;28;20048;-78
2021/05/21 01:14:53;;;;;;;8.27;1.70;;;15.30;93.50;;;;;;11983460;28;20044;-76
2021/05/21 01:20:40;;;;;;;8.57;1.42;;;15.40;93.50;;;;;;11955547;28;20139;-77
2021/05/21 01:26:28;;;;;;;11.25;2.25;;;15.20;93.90;;;;;;11981955;28;20055;-76
2021/05/21 01:32:14;;;;;;;7.10;2.08;;;15.10;94.50;;;;;;11955880;28;20053;-77
2021/05/21 01:38:05;;;;;;;10.38;2.10;;;15.20;94.80;;;;;;11993126;28;20502;-77
2021/05/21 01:43:52;;;;;;;12.73;2.15;;;15.20;94.90;;;;;;11996042;28;20041;-77
2021/05/21 01:49:38;;;;;;;12.25;2.25;;;15.10;95.10;;;;;;11987986;28;20041;-76
2021/05/21 01:55:26;;;;;;;13.00;2.22;;;14.80;95.40;;;;;;11954535;28;20045;-77
2021/05/21 02:01:12;;;;;;;13.60;2.45;;;14.90;95.70;;;;;;11992733;28;20044;-78
2021/05/21 02:06:59;;;;;;;12.02;2.15;;;14.90;95.80;;;;;;11988874;28;20052;-78
2021/05/21 02:12:46;;;;;;;17.08;2.22;;;14.90;95.90;;;;;;11991943;28;20053;-77
2021/05/21 02:18:32;;;;;;;16.52;2.70;;;15.20;95.70;;;;;;11987147;28;20048;-77
2021/05/21 02:24:19;;;;;;;18.00;2.65;;;15.30;95.30;;;;;;11989924;28;20164;-74
2021/05/21 02:30:09;;;;;;;13.52;3.05;;;15.20;95.30;;;;;;11989720;28;20132;-78
2021/05/21 02:35:56;;;;;;;15.27;2.88;;;15.30;95.60;;;;;;11988712;28;20045;-78
2021/05/21 02:41:43;;;;;;;18.00;2.92;;;15.20;95.50;;;;;;11985725;28;21001;-77
2021/05/21 02:47:31;;;;;;;22.90;3.70;;;15.30;95.30;;;;;;11998938;28;20104;-78
2021/05/21 02:53:18;;;;;;;19.95;2.70;;;15.40;95.10;;;;;;11977396;28;20064;-77
2021/05/21 02:59:04;;;;;;;18.00;3.25;;;15.40;95.20;;;;;;12000471;28;20401;-77
2021/05/21 03:04:52;;;;;;;22.27;3.40;;;15.20;95.20;;;;;;11995859;28;20048;-77
2021/05/21 03:10:38;;;;;;;23.80;3.75;;;15.20;95.30;;;;;;11995864;28;20488;-77
2021/05/21 03:16:25;;;;;;;21.38;4.35;;;15.40;95.30;;;;;;12002038;28;20064;-77
2021/05/21 03:22:12;;;;;;;19.33;3.55;;;15.40;95.20;;;;;;12004523;28;20041;-78
2021/05/21 03:27:59;;;;;;;18.00;3.58;;;15.50;94.50;;;;;;12004054;28;20045;-77
2021/05/21 03:33:45;;;;;;;21.27;3.58;;;15.50;94.40;;;;;;11976238;28;20049;-77
2021/05/21 03:39:32;;;;;;;18.50;3.20;;;15.60;94.40;;;;;;11993627;28;20060;-77
2021/05/21 03:45:19;;;;;;;28.88;4.32;;;15.50;94.50;;;;;;12001366;28;20507;-77
2021/05/21 03:51:05;;;;;;;17.60;3.15;;;15.60;94.10;;;;;;11994125;28;20072;-78
2021/05/21 03:56:53;;;;;;;23.45;3.70;;;15.50;94.10;;;;;;11989208;28;20409;-77
2021/05/21 04:02:40;;;;;;;23.92;3.70;;;15.40;94.10;;;;;;11985565;28;20645;-76
2021/05/21 04:08:28;;;;;;;23.27;3.92;;;15.40;94.40;;;;;;11997956;28;20052;-77
2021/05/21 04:14:16;;;;;;;26.52;3.67;;;15.40;94.30;;;;;;12001124;28;20482;-77
2021/05/21 04:20:03;;;;;;;22.35;3.40;;;15.30;94.80;;;;;;11971684;28;20099;-77
2021/05/21 04:25:51;;;;;;;23.42;3.42;;;15.20;94.70;;;;;;11979265;28;20049;-78
2021/05/21 06:03:27;;;;;;;25.77;4.05;;;13.30;99.90;;;;;;12030130;27;20368;-77
2021/05/21 06:09:15;;;;;;;27.38;4.30;;;14.00;99.90;;;;;;12117420;27;20724;-77
2021/05/21 06:15:04;;;;;;;27.85;4.07;;;14.50;99.90;;;;;;12125093;28;20516;-78
2021/05/21 06:20:51;;;;;;;25.83;4.32;;;14.90;99.90;;;;;;12133742;28;20786;-77
2021/05/21 06:26:40;;;;;;;27.20;4.18;;;15.10;99.90;;;;;;12130532;28;20408;-74
2021/05/21 06:32:26;;;;;;;24.35;4.30;;;15.10;99.90;;;;;;12119493;28;20056;-74
2021/05/21 06:38:13;;;;;;;29.92;4.35;;;15.30;99.70;;;;;;12116215;28;20896;-74
2021/05/21 06:44:01;;;;;;;21.33;3.97;;;15.20;99.20;;;;;;12111895;28;20117;-75
2021/05/21 06:49:48;;;;;;;30.80;3.95;;;15.30;99.20;;;;;;12068312;27;20068;-74
2021/05/21 06:55:35;;;;;;;35.67;5.18;;;15.70;98.10;;;;;;12105071;28;21464;-74
2021/05/21 07:01:22;;;;;;;29.10;4.50;;;15.40;97.90;;;;;;12100334;28;20052;-74
2021/05/21 07:07:08;;;;;;;20.00;3.83;;;15.40;97.70;;;;;;12100214;28;20514;-74
2021/05/21 07:12:55;;;;;;;22.58;3.35;;;15.30;97.70;;;;;;12057015;28;20733;-74
2021/05/21 07:18:41;;;;;;;35.85;5.00;;;15.10;97.40;;;;;;12080201;28;20036;-72
2021/05/21 07:24:28;;;;;;;21.00;3.78;;;15.40;97.40;;;;;;12056013;28;20059;-74
2021/05/21 07:30:16;;;;;;;24.58;4.00;;;15.30;97.00;;;;;;12082769;28;20043;-74
2021/05/21 07:36:04;;;;;;;22.55;3.60;;;15.50;97.30;;;;;;12087930;28;20052;-74
2021/05/21 07:41:54;;;;;;;25.27;3.50;;;15.60;96.20;;;;;;12090258;28;20052;-74
2021/05/21 07:47:41;;;;;;;25.00;3.65;;;15.90;95.90;;;;;;12095896;28;20048;-75
2021/05/21 07:53:31;;;;;;;22.75;3.92;;;15.70;94.80;;;;;;12085015;28;20093;-74
2021/05/21 07:59:17;;;;;;;20.75;3.72;;;15.70;95.00;;;;;;12087956;28;20053;-74
2021/05/21 08:05:06;;;;;;;20.58;3.63;;;15.60;95.20;;;;;;12049350;28;20048;-75
2021/05/21 08:10:55;;;;;;;27.08;3.67;;;15.50;94.70;;;;;;12092613;28;20109;-74
2021/05/21 08:16:41;;;;;;;19.45;3.17;;;15.80;93.60;;;;;;12090717;28;20055;-74
2021/05/21 08:22:28;;;;;;;29.05;4.50;;;15.80;93.90;;;;;;12085276;28;20078;-74
2021/05/21 08:28:15;;;;;;;18.42;3.63;;;15.90;93.20;;;;;;12076830;27;20049;-74
2021/05/21 08:34:01;;;;;;;20.80;3.45;;;15.90;92.00;;;;;;12092511;28;20113;-74
2021/05/21 08:39:49;;;;;;;28.15;3.70;;;15.70;91.00;;;;;;12090825;28;20056;-75
2021/05/21 08:45:36;;;;;;;20.88;3.40;;;15.90;91.70;;;;;;12090549;28;20421;-75
2021/05/21 08:51:27;;;;;;;19.30;3.08;;;16.20;91.20;;;;;;12087684;28;20048;-76
2021/05/21 08:57:18;;;;;;;14.77;2.70;;;16.50;89.80;;;;;;12059882;28;20052;-78
2021/05/21 09:03:21;;;;;;;16.05;2.28;;;16.40;87.20;;;;;;12069452;28;20670;-78
2021/05/21 09:09:10;;;;;;;16.00;2.65;;;16.20;87.30;;;;;;12075695;28;20058;-76
2021/05/21 09:15:10;;;;;;;19.38;2.97;;;16.30;87.90;;;;;;12075548;28;20062;-77
2021/05/21 09:21:02;;;;;;;12.55;2.40;;;16.70;85.90;;;;;;12048913;28;20690;-76
2021/05/21 09:26:56;;;;;;;15.20;3.75;;;16.90;82.30;;;;;;12025119;28;20048;-76
2021/05/21 09:32:45;;;;;;;14.90;2.60;;;17.10;82.70;;;;;;12047958;27;20056;-77
2021/05/21 09:38:45;;;;;;;12.90;2.92;;;17.20;81.70;;;;;;12067915;27;20048;-77
2021/05/21 09:44:37;;;;;;;16.48;2.58;;;16.90;78.30;;;;;;12024267;28;20056;-77
2021/05/21 09:50:47;;;;;;;20.02;2.88;;;16.90;79.00;;;;;;12028394;28;20060;-78
2021/05/21 09:56:34;;;;;;;15.90;2.60;;;17.00;80.20;;;;;;12047212;28;20105;-77
2021/05/21 10:02:22;;;;;;;18.33;3.10;;;17.20;81.70;;;;;;12049763;28;20063;-78
2021/05/21 10:08:10;;;;;;;13.60;2.15;;;17.30;80.10;;;;;;11999829;27;20054;-78
2021/05/21 10:13:56;;;;;;;16.05;2.53;;;17.40;76.20;;;;;;12044796;28;20118;-77
2021/05/21 10:19:43;;;;;;;15.18;3.10;;;17.40;75.80;;;;;;12077991;28;20418;-78
2021/05/21 10:25:31;;;;;;;12.35;2.53;;;17.50;77.30;;;;;;12076297;28;20048;-78
2021/05/21 10:31:19;;;;;;;14.68;2.40;;;17.80;74.70;;;;;;12071178;28;20134;-78
2021/05/21 10:37:20;;;;;;;15.15;3.50;;;18.10;73.30;;;;;;12069777;28;20067;-75
2021/05/21 10:43:14;;;;;;;13.73;2.65;;;18.00;73.20;;;;;;12077507;28;20056;-77
2021/05/21 10:49:02;;;;;;;15.48;2.80;;;18.20;71.70;;;;;;12075959;28;20458;-77
2021/05/21 10:54:50;;;;;;;11.15;2.38;;;18.20;72.80;;;;;;12082777;28;20060;-77
2021/05/21 11:00:39;;;;;;;13.32;2.25;;;18.40;72.70;;;;;;12052142;28;20675;-77
2021/05/21 11:06:27;;;;;;;15.25;2.33;;;18.50;69.60;;;;;;12061903;28;20098;-76
2021/05/21 11:12:15;;;;;;;10.50;2.30;;;18.70;66.80;;;;;;12071912;28;20055;-76
2021/05/21 11:18:11;;;;;;;11.25;2.20;;;18.60;67.40;;;;;;12071956;28;20063;-76
2021/05/21 11:24:05;;;;;;;10.10;2.67;;;18.40;66.80;;;;;;12080030;28;20422;-74
2021/05/21 11:29:54;;;;;;;11.95;2.08;;;18.30;68.50;;;;;;12079650;28;20097;-75
2021/05/21 11:35:42;;;;;;;10.88;2.10;;;18.60;68.50;;;;;;12029535;27;20087;-76
2021/05/21 11:41:33;;;;;;;10.85;2.22;;;18.50;65.90;;;;;;12068028;27;20754;-82
2021/05/21 11:47:24;;;;;;;11.13;1.73;;;18.20;65.10;;;;;;12082926;27;20052;-76
2021/05/21 11:53:12;;;;;;;8.43;1.98;;;17.90;66.50;;;;;;12085118;28;20044;-77
2021/05/21 11:59:01;;;;;;;7.97;1.80;;;18.20;67.80;;;;;;12079050;28;20044;-78
2021/05/21 12:04:48;;;;;;;14.77;2.45;;;18.10;66.80;;;;;;12070237;28;20414;-77
2021/05/21 12:10:35;;;;;;;7.70;1.60;;;18.50;68.00;;;;;;12082285;28;20056;-78
2021/05/21 12:16:22;;;;;;;14.43;2.13;;;19.00;64.90;;;;;;12052446;28;20052;-78
2021/05/21 12:22:11;;;;;;;89.18;28.13;;;18.70;65.30;;;;;;12051280;28;20137;-79
2021/05/21 12:27:59;;;;;;;8.23;1.98;;;19.10;63.40;;;;;;12029285;28;20052;-79
2021/05/21 12:33:49;;;;;;;17.65;2.00;;;19.50;59.90;;;;;;12024925;28;20158;-78
2021/05/21 12:39:39;;;;;;;11.93;1.70;;;19.50;58.90;;;;;;12015323;28;20050;-78
2021/05/21 12:45:26;;;;;;;13.70;1.73;;;19.60;59.20;;;;;;12070962;28;20090;-78
2021/05/21 12:51:25;;;;;;;9.43;2.17;;;19.20;61.40;;;;;;12077850;28;20055;-78
2021/05/21 12:57:18;;;;;;;14.70;1.83;;;18.70;62.20;;;;;;12091032;28;20051;-78
2021/05/21 13:03:09;;;;;;;12.98;2.15;;;18.60;64.60;;;;;;12096282;28;20056;-87
2021/05/21 13:08:58;;;;;;;11.70;2.22;;;18.80;65.30;;;;;;12103975;28;20047;-86
2021/05/21 13:14:45;;;;;;;18.23;2.63;;;18.90;64.90;;;;;;12047320;27;20097;-86
2021/05/21 13:20:35;;;;;;;10.65;2.05;;;19.00;69.20;;;;;;12048855;27;20049;-87
2021/05/21 13:26:21;;;;;;;10.13;2.10;;;19.10;66.90;;;;;;12087128;28;20532;-87
2021/05/21 13:32:08;;;;;;;10.32;2.20;;;19.20;66.40;;;;;;12066239;28;20071;-89
2021/05/21 13:37:58;;;;;;;17.58;2.50;;;19.50;65.50;;;;;;12057769;28;20048;-79
2021/05/21 13:43:44;;;;;;;15.10;2.25;;;18.80;65.30;;;;;;12028115;28;20049;-78
2021/05/21 13:49:31;;;;;;;15.55;2.53;;;18.90;65.90;;;;;;12053561;28;20052;-78
2021/05/21 13:55:19;;;;;;;11.07;1.75;;;19.10;64.20;;;;;;12073665;28;20537;-78
2021/05/21 14:01:05;;;;;;;14.20;2.35;;;19.60;63.70;;;;;;12047292;28;20101;-78
2021/05/21 14:06:53;;;;;;;12.82;2.50;;;19.70;64.00;;;;;;12084660;28;20044;-79
2021/05/21 14:12:41;;;;;;;11.77;2.20;;;19.60;63.00;;;;;;12110083;28;20050;-78
2021/05/21 14:18:34;;;;;;;10.20;1.98;;;19.60;62.20;;;;;;12125437;28;20400;-78
2021/05/21 14:24:21;;;;;;;12.90;2.17;;;19.70;62.40;;;;;;12109140;28;20056;-78
2021/05/21 14:30:10;;;;;;;10.43;1.83;;;20.10;61.10;;;;;;12085496;28;20056;-79
2021/05/21 14:35:57;;;;;;;13.23;2.08;;;20.30;57.40;;;;;;12086834;28;20422;-78
2021/05/21 14:41:44;;;;;;;8.23;1.58;;;20.50;57.70;;;;;;12086029;28;20056;-78
2021/05/21 14:47:32;;;;;;;7.53;1.80;;;20.80;57.90;;;;;;12088704;28;20520;-78
2021/05/21 14:53:18;;;;;;;14.45;2.55;;;20.60;58.60;;;;;;12060000;28;20044;-78
2021/05/21 14:59:05;;;;;;;11.43;3.90;;;19.70;58.70;;;;;;12084281;28;20058;-79
2021/05/21 15:04:56;;;;;;;8.98;1.75;;;19.90;59.80;;;;;;12082612;28;20052;-78
2021/05/21 15:10:44;;;;;;;8.40;1.98;;;20.20;59.30;;;;;;12085607;28;20056;-78
2021/05/21 15:16:43;;;;;;;11.80;1.90;;;20.30;58.70;;;;;;12083946;28;20051;-78
2021/05/21 15:28:35;;;;;;;17.58;2.00;;;20.00;58.30;;;;;;12086538;28;20044;-78
2021/05/21 15:34:23;;;;;;;8.48;1.45;;;20.30;56.80;;;;;;12087075;28;20107;-78
2021/05/21 15:40:11;;;;;;;10.95;1.52;;;20.40;55.50;;;;;;12084311;28;20044;-77
2021/05/21 15:46:03;;;;;;;6.72;2.25;;;20.30;55.40;;;;;;12086889;28;20071;-78
2021/05/21 15:51:58;;;;;;;10.85;1.33;;;20.30;55.30;;;;;;12087099;28;20150;-78
2021/05/21 15:57:50;;;;;;;6.82;1.48;;;19.90;56.60;;;;;;12058411;28;20048;-79
2021/05/21 16:03:37;;;;;;;8.60;1.60;;;19.40;58.30;;;;;;12059782;27;20815;-78
2021/05/21 16:09:24;;;;;;;64.43;40.97;;;19.30;58.00;;;;;;12039332;28;20601;-79
2021/05/21 16:15:14;;;;;;;7.47;1.45;;;19.20;58.40;;;;;;12043139;28;20452;-74
2021/05/21 16:21:00;;;;;;;7.88;1.75;;;19.00;59.10;;;;;;12051534;27;20044;-75
2021/05/21 16:26:47;;;;;;;12.85;1.85;;;18.80;59.90;;;;;;12051588;28;20048;-75
2021/05/21 16:32:34;;;;;;;16.33;2.00;;;18.70;59.50;;;;;;12035127;27;20052;-75
2021/05/21 16:38:21;;;;;;;12.52;1.40;;;18.70;60.30;;;;;;12041295;28;20512;-75
2021/05/21 16:44:08;;;;;;;10.35;1.70;;;17.90;72.80;;;;;;12050176;28;20118;-75
2021/05/21 16:49:55;;;;;;;6.95;1.40;;;16.80;79.20;;;;;;12027366;28;20056;-75
2021/05/21 16:55:42;;;;;;;10.40;1.60;;;16.70;80.90;;;;;;12059724;28;20111;-73
2021/05/21 17:01:28;;;;;;;8.00;1.63;;;18.20;77.30;;;;;;12096716;28;20044;-83
2021/05/21 17:07:15;;;;;;;7.35;1.55;;;19.50;73.50;;;;;;12099411;28;20063;-84
2021/05/21 17:13:02;;;;;;;12.07;1.73;;;23.00;60.60;;;;;;12040728;27;20057;-83
2021/05/21 17:19:03;;;;;;;9.73;1.65;;;25.20;56.50;;;;;;12033120;27;20068;-83
2021/05/21 17:43:08;;;;;;;5.85;1.40;;;20.10;59.90;;;;;;12068170;28;20052;-86
2021/05/21 17:49:06;;;;;;;9.52;1.88;;;19.20;62.80;;;;;;12031029;28;21492;-86
2021/05/21 17:54:58;;;;;;;8.20;1.35;;;18.60;64.40;;;;;;12045285;28;20125;-87
2021/05/21 18:01:24;;;;;;;7.80;1.05;;;17.70;66.60;;;;;;12083621;28;20051;-85
2021/05/21 18:07:19;;;;;;;3.92;1.17;;;18.40;76.00;;;;;;12084429;28;20071;-87
2021/05/21 18:13:38;;;;;;;3.05;1.08;;;21.40;65.70;;;;;;12079197;28;20066;-87
2021/05/21 18:44:04;;;;;;;11.48;3.85;;;23.20;57.60;;;;;;11970490;28;20133;-78
2021/05/21 18:50:15;;;;;;;6.25;1.60;;;22.00;60.70;;;;;;11973392;28;20079;-78
2021/05/21 19:02:14;;;;;;;9.95;1.35;;;21.50;61.80;;;;;;11982636;28;20063;-77
2021/05/21 19:08:05;;;;;;;10.10;1.80;;;20.40;64.80;;;;;;12044027;28;20058;-78
2021/05/21 19:14:03;;;;;;;6.95;1.30;;;19.50;69.00;;;;;;12086833;28;20043;-78
2021/05/21 19:19:52;;;;;;;10.68;1.98;;;19.00;70.50;;;;;;12035834;28;20749;-78
2021/05/21 19:25:39;;;;;;;9.65;1.45;;;18.50;73.20;;;;;;12032857;28;20051;-79
2021/05/21 19:31:36;;;;;;;8.93;1.77;;;18.10;74.40;;;;;;12036185;28;20486;-80
2021/05/21 19:44:03;;;;;;;5.75;1.58;;;17.70;76.80;;;;;;12033283;28;20044;-83
2021/05/21 19:57:01;;;;;;;8.73;1.58;;;17.30;76.90;;;;;;11813453;28;20080;-82
2021/05/21 20:02:54;;;;;;;6.07;1.75;;;17.30;76.90;;;;;;11799211;28;20476;-82
2021/05/21 20:14:46;;;;;;;4.90;1.13;;;17.00;74.60;;;;;;11818635;28;20122;-81
2021/05/21 20:20:33;;;;;;;4.70;1.08;;;16.80;74.00;;;;;;11817532;28;20046;-81
2021/05/21 20:26:24;;;;;;;6.25;0.93;;;16.70;73.10;;;;;;11994280;28;20051;-82
2021/05/21 20:32:30;;;;;;;5.88;1.30;;;16.60;72.00;;;;;;12047005;28;20692;-82
2021/05/21 20:48:11;;;;;;;7.55;1.05;;;16.40;72.30;;;;;;12040825;28;20101;-82
2021/05/21 21:03:10;;;;;;;6.95;1.42;;;16.00;75.70;;;;;;12069150;28;20052;-81
2021/05/21 21:08:59;;;;;;;3.25;1.05;;;15.90;76.70;;;;;;12039060;27;20095;-82
2021/05/21 21:14:55;;;;;;;10.95;1.70;;;15.80;77.70;;;;;;12023063;28;20052;-72
2021/05/21 21:51:22;;;;;;;15.93;1.75;;;15.80;81.00;;;;;;11892288;28;21217;-71
2021/05/21 21:57:30;;;;;;;14.53;2.03;;;15.50;81.50;;;;;;11895698;28;20051;-73
2021/05/21 22:03:26;;;;;;;11.63;2.17;;;15.30;82.40;;;;;;11895807;28;20140;-71
2021/05/21 22:15:52;;;;;;;8.48;1.70;;;15.40;82.60;;;;;;11761567;28;20057;-71
2021/05/21 22:21:46;;;;;;;10.52;1.80;;;15.20;83.20;;;;;;11759755;28;20093;-71
2021/05/21 22:27:32;;;;;;;;;;;15.30;83.70;;;;;;11807248;28;20080;-71
2021/05/21 22:33:20;;;;;;;13.35;2.03;;;15.20;84.20;;;;;;11824462;28;20695;-71
2021/05/21 22:39:08;;;;;;;12.70;2.20;;;15.20;84.40;;;;;;11831256;28;20046;-79
2021/05/21 22:44:56;;;;;;;18.08;2.30;;;15.30;84.80;;;;;;11951410;28;20414;-79
2021/05/21 22:50:43;;;;;;;15.82;2.22;;;15.00;85.20;;;;;;12081916;28;20683;-79
2021/05/21 22:56:32;;;;;;;10.05;2.15;;;15.00;85.60;;;;;;12065182;28;20101;-79
2021/05/21 23:02:18;;;;;;;11.70;1.83;;;14.80;85.60;;;;;;12048766;28;20052;-79
2021/05/21 23:08:06;;;;;;;8.32;1.42;;;15.00;85.70;;;;;;12053177;28;20534;-79
2021/05/21 23:13:52;;;;;;;11.02;2.17;;;15.10;85.20;;;;;;12073636;28;20051;-79
2021/05/21 23:19:39;;;;;;;15.18;1.75;;;14.90;85.30;;;;;;12071466;28;20044;-78
2021/05/21 23:25:26;;;;;;;12.52;2.17;;;15.00;85.60;;;;;;12057666;28;20056;-79
2021/05/21 23:31:13;;;;;;;13.35;1.85;;;15.20;84.90;;;;;;12033281;27;20048;-79
2021/05/21 23:36:59;;;;;;;11.18;1.58;;;14.60;86.00;;;;;;12057957;28;20044;-80
2021/05/21 23:42:46;;;;;;;13.55;1.65;;;14.80;85.90;;;;;;12074009;28;20048;-79
2021/05/21 23:48:34;;;;;;;13.07;1.80;;;14.70;86.00;;;;;;12079573;28;20044;-79
2021/05/21 23:54:20;;;;;;;8.60;1.70;;;14.70;86.40;;;;;;12073492;28;20056;-79
